Isla Saona, Dominican Republic
Current Conditions -  °F | °C
As of 8:00 PM on Thursday 18 Dec 2014 (Local Time) from MDPC Reporting Station
Scattered Clouds Scattered Clouds  
Wind Chill: 24°   Ceiling: Unl
Heat Index: 24°   Visibility: 6mi
Dew Point: 19°   Wind: 7mph
Humidity: 73%   Direction: 70°ENE
Pressure: 30"   Gusts: NA
Location:  18.09°N, 67.89°W
Report Text: MDPC 190000Z 07006KT 9999 SCT027 24/19 Q1016 NOSIG
Loading
Personal Weather Stations






























Interactive Weather Map New forecast layout! Learn more

10-Day Weather Forecast

Advertisements
Track Severe Weather on mobile